Hlavní strana
METAR-TAF:

METAR-TAF

Letiště :

Johnston County Airport

Smithfield, Severní Karolína, Spojené státy americké

zeměpisná šířka: 35-32-27N, zeměpisná délka: 078-23-25W, výška: 50 m

Aktuální stav počasí

Zpráva byla vytvořena před 33 minutami, v 04:15 UTC
Jihojihovýchodní vítr 5 kt
Teplota 15°C
Vlhkost vzduchu 100%
Tlak 1013 hPa
Viditelnost: 6.4 km
Zataženo ve výšce 800 ft
slabý déšť

METAR: KJNX 250415Z AUTO 16005KT 4SM -RA OVC008 15/15 A2992 RMK AO2 P0002

Čas: 23:48 (04:48 UTC)


TAF: chybějící

Stav a předpovědi počasí z více než 4 000 letišť (zprávy METAR a TAF).

Červené a žluté tečky na mapě představují dostupné meteorologické stanice.

Když kurzor umístíte na tečku, zobrazí se název stanice.

Pak kliknutím zobrazíte stav a předpověď počasí.

Chcete-li změnit mapu, kliknutím na zelené tlačítko se znaménkem +mapu přiblížíte, kliknutím na zelené tlačítko se znaménkem – mapu oddálíte a kliknutím na zelené šipky přejdete na sousední mapy.


METAR-TAF: